CheckWX is a tool to help pilots better visualize weather data.  It is not intended as a substitute for an official pre-flight weather briefing.

15:07:01 UTC

KLGU METAR
Logan-Cache Airport
Logan, Utah, USA
Current

16 mins ago

KLGU 231451Z AUTO 13018G26KT 10SM OVC055 09/M01 A2977 RMK AO2 PK WND 13042/1421 SLP059 T00891011 56007 $
Observed
May-23 @ 14:51 UTC
Wind
  • 130° at 18 KTS
  • Gusting to 26 KTS
Visibility
10 SM
Flight Rules
VFR
Cloud Levels
  • Overcast at 5,500' AGL
Temperature
C / 48°F
Dewpoint
-1°C / 30°F
Humidity
50%
Altimeter
29.77" Hg
Pressure
1008.12 hPa
Previous

1 hour ago

KLGU 231351Z AUTO 09021G36KT 10SM FEW050 BKN095 OVC110 09/M02 A2977 RMK AO2 PK WND 09036/1348 SLP057 T00891017 $
Observed
May-23 @ 13:51 UTC
Wind
  • 090° at 21 KTS
  • Gusting to 36 KTS
Visibility
10 SM
Flight Rules
VFR
Cloud Levels
  • Few at 5,000' AGL
  • Broken at 9,500' AGL
  • Overcast at 11,000' AGL
Temperature
C / 48°F
Dewpoint
-2°C / 28°F
Humidity
46%
Altimeter
29.77" Hg
Pressure
1008.12 hPa
Previous

2 hours ago

KLGU 231251Z AUTO 03008KT 350V070 10SM FEW048 OVC100 08/M01 A2979 RMK AO2 PK WND 05030/1158 SLP067 T00781011 $
Observed
May-23 @ 12:51 UTC
Wind
  • 030° at 8 KTS
Visibility
10 SM
Flight Rules
VFR
Cloud Levels
  • Few at 4,800' AGL
  • Overcast at 10,000' AGL
Temperature
C / 46°F
Dewpoint
-1°C / 30°F
Humidity
53%
Altimeter
29.79" Hg
Pressure
1008.82 hPa